createdAt,value
2022-10-16T00:00:55.467Z,13.00
2022-10-16T00:03:26.767Z,15.48
2022-10-16T00:06:01.019Z,11.43
2022-10-16T00:08:28.616Z,19.23
2022-10-16T00:11:09.148Z,14.27
2022-10-16T00:13:38.062Z,16.62
2022-10-16T00:16:05.566Z,19.12
2022-10-16T00:18:32.466Z,35.80
2022-10-16T00:21:27.155Z,15.27
2022-10-16T00:23:55.953Z,17.17
2022-10-16T00:26:23.632Z,20.65
2022-10-16T00:28:51.852Z,16.15
2022-10-16T00:31:20.835Z,17.25
2022-10-16T00:33:48.339Z,14.43
2022-10-16T00:36:19.112Z,17.75
2022-10-16T00:38:46.311Z,16.98
2022-10-16T00:41:16.590Z,11.27
2022-10-16T00:43:45.665Z,12.25
2022-10-16T00:46:38.652Z,16.00
2022-10-16T00:49:18.110Z,14.85
2022-10-16T00:51:51.897Z,14.23
2022-10-16T00:54:22.487Z,14.23
2022-10-16T00:56:50.457Z,11.80
2022-10-16T00:59:20.732Z,16.17
2022-10-16T01:01:47.826Z,19.60
2022-10-16T01:04:14.713Z,19.58
2022-10-16T01:06:57.310Z,16.87
2022-10-16T01:10:04.135Z,14.55
2022-10-16T01:12:44.211Z,16.73
2022-10-16T01:18:27.670Z,14.30
2022-10-16T01:21:04.170Z,15.68
2022-10-16T01:23:40.222Z,13.52
2022-10-16T01:26:14.643Z,13.52
2022-10-16T01:28:50.800Z,14.73
2022-10-16T01:31:20.146Z,15.77
2022-10-16T01:33:51.378Z,11.45
2022-10-16T01:36:26.984Z,19.92
2022-10-16T01:38:55.699Z,18.65
2022-10-16T01:41:26.628Z,14.18
2022-10-16T01:46:22.479Z,13.68
2022-10-16T01:48:50.470Z,14.10
2022-10-16T01:51:18.259Z,12.85
2022-10-16T01:53:49.670Z,13.98
2022-10-16T01:56:18.442Z,16.65
2022-10-16T01:58:54.914Z,12.90
2022-10-16T02:01:24.565Z,13.25
2022-10-16T02:03:53.190Z,10.35
2022-10-16T02:06:20.629Z,18.80
2022-10-16T02:08:47.915Z,14.98
2022-10-16T02:11:15.051Z,13.73
2022-10-16T02:13:49.802Z,18.20
2022-10-16T02:16:16.890Z,14.00
2022-10-16T02:18:44.583Z,14.68
2022-10-16T02:21:19.018Z,14.90
2022-10-16T02:23:55.417Z,20.40
2022-10-16T02:26:32.305Z,17.00
2022-10-16T02:29:02.731Z,16.65
2022-10-16T02:31:32.710Z,11.48
2022-10-16T02:34:00.234Z,10.95
2022-10-16T02:36:28.280Z,13.85
2022-10-16T02:38:55.390Z,12.00
2022-10-16T02:41:23.198Z,12.23
2022-10-16T02:43:50.528Z,11.85
2022-10-16T02:46:18.918Z,14.57
2022-10-16T02:48:46.000Z,12.15
2022-10-16T02:51:12.995Z,20.17
2022-10-16T02:53:39.854Z,14.32
2022-10-16T02:56:07.107Z,12.05
2022-10-16T02:58:34.085Z,10.38
2022-10-16T03:01:01.077Z,11.75
2022-10-16T03:03:28.254Z,18.48
2022-10-16T03:05:55.117Z,18.05
2022-10-16T03:08:24.576Z,11.93
2022-10-16T03:10:52.282Z,15.02
2022-10-16T03:13:21.363Z,12.13
2022-10-16T03:15:48.465Z,12.65
2022-10-16T03:18:16.115Z,13.13
2022-10-16T03:20:43.994Z,13.27
2022-10-16T03:23:11.010Z,15.32
2022-10-16T03:25:38.153Z,12.27
2022-10-16T03:28:05.059Z,18.27
2022-10-16T03:30:31.940Z,16.08
2022-10-16T03:32:59.025Z,19.75
2022-10-16T03:35:25.980Z,13.00
2022-10-16T03:37:53.015Z,17.52
2022-10-16T03:40:20.133Z,13.00
2022-10-16T03:42:46.989Z,13.52
2022-10-16T03:45:13.860Z,16.90
2022-10-16T03:47:40.965Z,9.65
2022-10-16T03:50:08.388Z,15.07
2022-10-16T03:52:35.325Z,13.30
2022-10-16T03:55:02.414Z,11.88
2022-10-16T03:57:29.522Z,15.38
2022-10-16T03:59:56.617Z,16.52
2022-10-16T04:02:23.790Z,13.85
2022-10-16T04:04:51.453Z,15.50
2022-10-16T04:07:18.308Z,15.20
2022-10-16T04:09:45.154Z,13.20
2022-10-16T04:12:12.301Z,15.13
2022-10-16T04:14:39.157Z,24.65
2022-10-16T04:17:06.074Z,18.92
2022-10-16T04:19:33.190Z,24.60
2022-10-16T04:22:00.085Z,33.15
2022-10-16T04:24:26.937Z,21.45
2022-10-16T04:26:54.069Z,21.70
2022-10-16T04:29:20.954Z,23.10
2022-10-16T04:31:47.896Z,21.15
2022-10-16T04:34:15.003Z,18.35
2022-10-16T04:36:44.630Z,15.30
2022-10-16T04:39:11.469Z,15.88
2022-10-16T04:41:41.678Z,19.92
2022-10-16T04:44:11.740Z,14.75
2022-10-16T04:46:41.697Z,17.90
2022-10-16T04:49:11.304Z,19.98
2022-10-16T04:51:41.647Z,18.12
2022-10-16T04:54:11.417Z,19.55
2022-10-16T04:56:44.250Z,16.42
2022-10-16T04:59:11.163Z,17.33
2022-10-16T05:01:41.344Z,14.52
2022-10-16T05:04:11.538Z,14.00
2022-10-16T05:06:41.994Z,13.85
2022-10-16T05:09:11.670Z,29.17
2022-10-16T05:11:41.845Z,15.68
2022-10-16T05:16:43.704Z,17.33
2022-10-16T05:19:27.762Z,22.08
2022-10-16T05:21:55.567Z,16.23
2022-10-16T05:24:22.765Z,11.38
2022-10-16T05:26:49.673Z,16.30
2022-10-16T05:29:16.760Z,16.27
2022-10-16T05:31:43.638Z,22.25
2022-10-16T05:34:13.542Z,17.00
2022-10-16T05:36:43.494Z,15.68
2022-10-16T05:39:10.336Z,16.35
2022-10-16T05:41:39.409Z,15.35
2022-10-16T05:44:08.015Z,17.95
2022-10-16T05:46:34.947Z,13.90
2022-10-16T05:49:01.898Z,18.10
2022-10-16T05:51:29.026Z,14.32
2022-10-16T05:53:55.915Z,15.50
2022-10-16T05:56:22.823Z,16.02
2022-10-16T05:58:49.958Z,17.08
2022-10-16T06:01:18.647Z,14.05
2022-10-16T06:03:46.126Z,16.42
2022-10-16T06:06:21.255Z,21.08
2022-10-16T06:08:49.403Z,12.98
2022-10-16T06:11:18.705Z,19.33
2022-10-16T06:13:46.913Z,22.37
2022-10-16T06:16:14.184Z,18.52
2022-10-16T06:18:41.343Z,13.05
2022-10-16T06:21:10.722Z,11.20
2022-10-16T06:23:38.434Z,27.13
2022-10-16T06:26:16.933Z,15.30
2022-10-16T06:28:44.159Z,12.63
2022-10-16T06:31:12.406Z,18.15
2022-10-16T06:33:40.268Z,13.00
2022-10-16T06:36:12.625Z,13.45
2022-10-16T06:38:39.834Z,12.85
2022-10-16T06:41:08.235Z,10.82
2022-10-16T06:43:38.238Z,14.25
2022-10-16T06:46:08.677Z,9.90
2022-10-16T06:48:36.261Z,13.10
2022-10-16T06:51:20.702Z,14.13
2022-10-16T06:54:08.209Z,12.80
2022-10-16T06:56:35.740Z,10.38
2022-10-16T06:59:03.370Z,8.05
2022-10-16T07:01:31.214Z,16.10
2022-10-16T07:03:58.473Z,11.88
2022-10-16T07:06:26.505Z,11.48
2022-10-16T07:08:53.473Z,13.95
2022-10-16T07:11:22.397Z,15.32
2022-10-16T07:13:54.569Z,9.13
2022-10-16T07:16:25.729Z,11.75
2022-10-16T07:19:01.191Z,9.35
2022-10-16T07:21:30.997Z,13.30
2022-10-16T07:24:00.144Z,17.15
2022-10-16T07:26:28.116Z,9.20
2022-10-16T07:28:55.204Z,13.25
2022-10-16T07:31:22.481Z,10.85
2022-10-16T07:33:50.487Z,11.27
2022-10-16T07:36:18.953Z,10.65
2022-10-16T07:38:46.103Z,9.88
2022-10-16T07:41:18.543Z,9.15
2022-10-16T07:43:52.967Z,13.52
2022-10-16T07:46:21.752Z,8.45
2022-10-16T07:48:49.273Z,14.18
2022-10-16T07:51:18.927Z,10.77
2022-10-16T07:53:46.660Z,11.65
2022-10-16T07:56:13.602Z,10.45
2022-10-16T07:58:40.660Z,12.60
2022-10-16T08:01:09.863Z,8.15
2022-10-16T08:03:37.152Z,11.40
2022-10-16T08:06:04.767Z,10.63
2022-10-16T08:08:31.694Z,11.73
2022-10-16T08:10:58.812Z,12.68
2022-10-16T08:13:25.692Z,13.50
2022-10-16T08:15:54.832Z,12.88
2022-10-16T08:18:21.957Z,16.58
2022-10-16T08:20:48.805Z,11.93
2022-10-16T08:23:15.744Z,16.60
2022-10-16T08:25:42.891Z,15.25
2022-10-16T08:28:11.730Z,16.17
2022-10-16T08:30:38.831Z,11.73
2022-10-16T08:33:06.950Z,13.57
2022-10-16T08:35:34.257Z,13.20
2022-10-16T08:38:01.118Z,12.50
2022-10-16T08:40:34.229Z,15.40
2022-10-16T08:43:06.910Z,13.02
2022-10-16T08:45:40.002Z,13.65
2022-10-16T08:48:16.258Z,10.98
2022-10-16T08:50:44.703Z,21.10
2022-10-16T08:53:25.738Z,16.00
2022-10-16T08:55:54.106Z,14.82
2022-10-16T08:58:23.633Z,14.57
2022-10-16T09:00:55.539Z,14.35
2022-10-16T09:03:38.242Z,16.12
2022-10-16T09:06:29.549Z,16.55
2022-10-16T09:09:24.726Z,16.92
2022-10-16T09:12:02.719Z,14.98
2022-10-16T09:14:48.264Z,12.23
2022-10-16T09:17:45.218Z,10.70
2022-10-16T09:20:29.300Z,11.70
2022-10-16T09:23:17.618Z,18.23
2022-10-16T09:25:50.079Z,13.90
2022-10-16T09:28:18.485Z,11.40
2022-10-16T09:30:46.441Z,14.82
2022-10-16T09:33:14.966Z,11.00
2022-10-16T09:35:45.168Z,11.27
2022-10-16T09:38:36.850Z,15.40
2022-10-16T09:41:22.472Z,14.50
2022-10-16T09:43:55.490Z,14.55
2022-10-16T09:46:27.218Z,9.93
2022-10-16T09:48:57.208Z,14.57
2022-10-16T09:51:36.365Z,13.07
2022-10-16T09:54:21.045Z,13.40
2022-10-16T09:56:52.838Z,14.75
2022-10-16T09:59:22.143Z,11.98
2022-10-16T10:01:53.892Z,10.35
2022-10-16T10:04:23.101Z,14.85
2022-10-16T10:06:55.379Z,13.90
2022-10-16T10:09:25.210Z,12.90
2022-10-16T10:11:56.137Z,16.30
2022-10-16T10:15:00.538Z,11.70
2022-10-16T10:17:29.218Z,14.00
2022-10-16T10:20:04.069Z,15.20
2022-10-16T10:22:39.978Z,9.23
2022-10-16T10:25:12.674Z,15.88
2022-10-16T10:28:06.724Z,10.57
2022-10-16T10:31:09.061Z,12.50
2022-10-16T10:33:55.817Z,9.20
2022-10-16T10:36:36.095Z,21.00
2022-10-16T10:39:16.904Z,11.75
2022-10-16T10:42:13.122Z,11.60
2022-10-16T10:45:20.083Z,10.95
2022-10-16T10:48:20.694Z,10.70
2022-10-16T10:50:55.823Z,11.77
2022-10-16T10:53:52.182Z,16.00
2022-10-16T10:56:40.224Z,11.60
2022-10-16T10:59:42.906Z,9.80
2022-10-16T11:02:23.132Z,11.80
2022-10-16T11:05:13.558Z,10.60
2022-10-16T11:07:54.082Z,9.82
2022-10-16T11:10:32.002Z,13.20
2022-10-16T11:13:24.959Z,10.55
2022-10-16T11:15:55.186Z,19.83
2022-10-16T11:18:45.380Z,9.23
2022-10-16T11:21:14.407Z,12.02
2022-10-16T11:23:57.787Z,9.02
2022-10-16T11:26:28.596Z,12.05
2022-10-16T11:28:57.514Z,15.88
2022-10-16T11:31:31.178Z,11.60
2022-10-16T11:34:16.028Z,9.95
2022-10-16T11:36:52.651Z,9.32
2022-10-16T11:39:22.350Z,9.25
2022-10-16T11:41:52.786Z,8.32
2022-10-16T11:44:40.999Z,7.20
2022-10-16T11:47:46.456Z,8.52
2022-10-16T11:50:21.913Z,7.93
2022-10-16T11:53:14.614Z,8.50
2022-10-16T11:55:46.796Z,8.55
2022-10-16T11:58:27.680Z,9.75
2022-10-16T12:01:06.739Z,8.65
2022-10-16T12:04:00.961Z,7.70
2022-10-16T12:06:51.881Z,7.60
2022-10-16T12:09:30.839Z,11.77
2022-10-16T12:11:58.137Z,8.95
2022-10-16T12:14:51.700Z,6.97
2022-10-16T12:17:35.559Z,4.80
2022-10-16T12:20:22.088Z,5.30
2022-10-16T12:22:59.759Z,6.75
2022-10-16T12:25:35.250Z,8.80
2022-10-16T12:28:06.027Z,5.90
2022-10-16T12:30:36.612Z,9.27
2022-10-16T12:35:35.080Z,8.13
2022-10-16T12:40:58.876Z,11.52
2022-10-16T12:43:35.570Z,12.40
2022-10-16T12:46:05.593Z,7.20
2022-10-16T12:51:35.619Z,6.03
2022-10-16T12:54:16.289Z,9.73
2022-10-16T12:56:58.233Z,8.77
2022-10-16T13:00:10.746Z,6.35
2022-10-16T13:02:50.901Z,5.70
2022-10-16T13:05:25.337Z,8.65
2022-10-16T13:08:07.198Z,15.73
2022-10-16T13:10:45.483Z,9.27
2022-10-16T13:13:30.778Z,6.75
2022-10-16T13:16:00.882Z,11.68
2022-10-16T13:18:39.677Z,6.45
2022-10-16T13:21:19.016Z,10.55
2022-10-16T13:23:58.293Z,10.15
2022-10-16T13:26:51.624Z,8.68
2022-10-16T13:29:19.634Z,7.72
2022-10-16T13:31:46.794Z,7.28
2022-10-16T13:34:22.734Z,8.63
2022-10-16T13:36:53.750Z,5.35
2022-10-16T13:39:25.940Z,8.18
2022-10-16T13:42:27.023Z,7.10
2022-10-16T13:44:57.082Z,5.78
2022-10-16T13:47:29.606Z,7.75
2022-10-16T13:50:10.642Z,8.85
2022-10-16T13:52:39.087Z,8.52
2022-10-16T13:55:17.532Z,8.80
2022-10-16T13:57:44.803Z,8.90
2022-10-16T14:00:30.887Z,6.37
2022-10-16T14:03:13.914Z,5.50
2022-10-16T14:05:49.389Z,6.72
2022-10-16T14:08:16.622Z,6.90
2022-10-16T14:10:43.572Z,6.93
2022-10-16T14:13:18.017Z,11.02
2022-10-16T14:15:48.625Z,9.60
2022-10-16T14:18:19.975Z,9.68
2022-10-16T14:20:47.186Z,10.85
2022-10-16T14:23:29.849Z,6.37
2022-10-16T14:26:14.122Z,6.97
2022-10-16T14:28:42.212Z,6.30
2022-10-16T14:31:25.990Z,5.62
2022-10-16T14:33:54.077Z,5.10
2022-10-16T14:36:22.863Z,9.30
2022-10-16T14:39:18.788Z,10.40
2022-10-16T14:41:48.063Z,9.60
2022-10-16T14:44:15.446Z,10.27
2022-10-16T14:46:45.953Z,11.70
2022-10-16T14:49:19.379Z,8.93
2022-10-16T14:51:46.988Z,5.45
2022-10-16T14:54:18.966Z,10.75
2022-10-16T14:56:54.625Z,8.85
2022-10-16T14:59:40.884Z,14.40
2022-10-16T15:02:21.168Z,10.32
2022-10-16T15:04:48.509Z,7.72
2022-10-16T15:07:15.779Z,9.23
2022-10-16T15:09:48.025Z,5.15
2022-10-16T15:12:17.165Z,7.43
2022-10-16T15:14:44.391Z,6.35
2022-10-16T15:17:11.941Z,9.10
2022-10-16T15:19:39.204Z,7.87
2022-10-16T15:22:06.114Z,5.78
2022-10-16T15:24:32.999Z,6.85
2022-10-16T15:27:00.165Z,5.40
2022-10-16T15:29:27.007Z,8.95
2022-10-16T15:31:53.882Z,8.65
2022-10-16T15:34:21.061Z,8.88
2022-10-16T15:36:47.909Z,9.93
2022-10-16T15:39:17.065Z,5.30
2022-10-16T15:41:46.179Z,6.83
2022-10-16T15:44:13.043Z,7.70
2022-10-16T15:46:42.894Z,6.32
2022-10-16T15:49:13.168Z,5.93
2022-10-16T15:51:43.579Z,8.25
2022-10-16T15:54:10.787Z,15.85
2022-10-16T15:56:38.171Z,20.27
2022-10-16T15:59:10.420Z,24.77
2022-10-16T16:01:37.636Z,13.43
2022-10-16T16:04:15.330Z,16.60
2022-10-16T16:06:47.281Z,16.60
2022-10-16T16:09:15.335Z,17.98
2022-10-16T16:11:45.006Z,21.90
2022-10-16T16:14:15.344Z,19.58
2022-10-16T16:16:43.079Z,28.08
2022-10-16T16:19:12.777Z,28.98
2022-10-16T16:21:42.546Z,23.35
2022-10-16T16:24:12.424Z,24.12
2022-10-16T16:26:44.468Z,19.62
2022-10-16T16:29:16.094Z,36.28
2022-10-16T16:31:43.434Z,39.50
2022-10-16T16:34:10.571Z,29.95
2022-10-16T16:36:37.768Z,24.00
2022-10-16T16:39:04.894Z,23.02
2022-10-16T16:41:31.980Z,25.88
2022-10-16T16:44:07.762Z,22.58
2022-10-16T16:46:34.970Z,32.55
2022-10-16T16:49:02.981Z,25.05
2022-10-16T16:51:29.909Z,26.85
2022-10-16T16:53:57.180Z,25.10
2022-10-16T16:56:25.090Z,33.03
2022-10-16T16:58:55.077Z,41.92
2022-10-16T17:01:22.801Z,35.58
2022-10-16T17:03:52.618Z,38.78
2022-10-16T17:06:21.843Z,36.40
2022-10-16T17:08:49.781Z,37.38
2022-10-16T17:11:22.667Z,45.05
2022-10-16T17:13:53.884Z,47.55
2022-10-16T17:16:29.918Z,54.22
2022-10-16T17:18:57.134Z,55.47
2022-10-16T17:21:24.314Z,67.25
2022-10-16T17:23:53.030Z,70.00
2022-10-16T17:26:19.955Z,61.00
2022-10-16T17:28:47.150Z,70.68
2022-10-16T17:31:16.850Z,68.43
2022-10-16T17:33:44.694Z,74.40
2022-10-16T17:36:14.606Z,70.85
2022-10-16T17:38:42.791Z,64.50
2022-10-16T17:41:22.470Z,62.78
2022-10-16T17:43:50.160Z,71.43
2022-10-16T17:46:18.877Z,62.92
2022-10-16T17:48:48.286Z,64.53
2022-10-16T17:51:20.818Z,85.53
2022-10-16T17:53:52.523Z,88.20
2022-10-16T17:56:20.199Z,77.90
2022-10-16T17:58:51.731Z,84.47
2022-10-16T18:01:24.941Z,77.45
2022-10-16T18:03:57.676Z,90.45
2022-10-16T18:06:25.154Z,90.30
2022-10-16T18:08:53.417Z,91.55
2022-10-16T18:11:21.850Z,103.57
2022-10-16T18:13:48.737Z,91.70
2022-10-16T18:16:16.181Z,98.93
2022-10-16T18:18:44.887Z,84.97
2022-10-16T18:21:13.941Z,81.57
2022-10-16T18:23:41.581Z,83.95
2022-10-16T18:26:10.237Z,86.78
2022-10-16T18:28:37.520Z,88.28
2022-10-16T18:31:07.317Z,83.28
2022-10-16T18:33:34.253Z,80.38
2022-10-16T18:36:09.170Z,81.45
2022-10-16T18:38:37.185Z,76.25
2022-10-16T18:41:05.752Z,74.55
2022-10-16T18:43:37.557Z,74.90
2022-10-16T18:46:07.777Z,76.40
2022-10-16T18:48:35.004Z,71.03
2022-10-16T18:51:19.555Z,70.97
2022-10-16T18:53:49.418Z,69.05
2022-10-16T18:56:17.508Z,79.97
2022-10-16T18:58:45.926Z,76.05
2022-10-16T19:01:16.285Z,71.68
2022-10-16T19:03:43.979Z,70.80
2022-10-16T19:06:14.348Z,83.28
2022-10-16T19:11:11.558Z,73.40
2022-10-16T19:13:38.614Z,61.63
2022-10-16T19:16:19.717Z,71.95
2022-10-16T19:18:48.423Z,70.47
2022-10-16T19:21:16.226Z,58.70
2022-10-16T19:23:43.805Z,58.58
2022-10-16T19:26:16.196Z,74.45
2022-10-16T19:28:44.299Z,59.65
2022-10-16T19:31:16.700Z,70.55
2022-10-16T19:33:44.009Z,69.95
2022-10-16T19:36:13.484Z,79.85
2022-10-16T19:38:41.702Z,69.93
2022-10-16T19:41:16.762Z,73.75
2022-10-16T19:43:44.094Z,80.53
2022-10-16T19:46:18.759Z,76.45
2022-10-16T19:48:45.954Z,70.10
2022-10-16T19:51:16.343Z,59.33
2022-10-16T19:53:44.197Z,59.70
2022-10-16T19:56:21.357Z,58.87
2022-10-16T19:58:49.044Z,57.72
2022-10-16T20:01:16.780Z,63.03
2022-10-16T20:03:45.072Z,49.28
2022-10-16T20:06:12.698Z,42.70
2022-10-16T20:08:41.139Z,53.13
2022-10-16T20:11:20.182Z,49.97
2022-10-16T20:13:47.116Z,43.63
2022-10-16T20:16:17.863Z,50.03
2022-10-16T20:18:45.770Z,45.40
2022-10-16T20:21:16.537Z,53.30
2022-10-16T20:23:44.814Z,47.60
2022-10-16T20:26:11.712Z,43.90
2022-10-16T20:28:42.611Z,54.42
2022-10-16T20:31:16.010Z,53.22
2022-10-16T20:33:42.971Z,43.97
2022-10-16T20:36:14.110Z,44.22
2022-10-16T20:38:41.628Z,46.37
2022-10-16T20:41:09.117Z,34.17
2022-10-16T20:43:39.251Z,43.83
2022-10-16T20:46:08.823Z,38.78
2022-10-16T20:48:36.032Z,38.72
2022-10-16T20:51:23.221Z,43.67
2022-10-16T20:53:55.320Z,37.90
2022-10-16T20:56:23.093Z,42.28
2022-10-16T20:58:49.965Z,50.03
2022-10-16T21:01:20.858Z,40.42
2022-10-16T21:03:56.499Z,52.40
2022-10-16T21:06:24.047Z,37.55
2022-10-16T21:08:51.351Z,46.25
2022-10-16T21:11:23.173Z,43.67
2022-10-16T21:13:53.396Z,36.25
2022-10-16T21:16:20.708Z,38.15
2022-10-16T21:18:47.642Z,42.03
2022-10-16T21:21:29.039Z,39.78
2022-10-16T21:23:57.313Z,39.50
2022-10-16T21:26:28.072Z,39.10
2022-10-16T21:28:59.811Z,46.95
2022-10-16T21:31:27.454Z,48.47
2022-10-16T21:33:55.340Z,46.75
2022-10-16T21:36:24.377Z,47.53
2022-10-16T21:38:51.897Z,50.05
2022-10-16T21:41:23.859Z,59.72
2022-10-16T21:43:51.149Z,49.25
2022-10-16T21:46:19.970Z,56.65
2022-10-16T21:48:47.183Z,44.70
2022-10-16T21:51:14.748Z,50.38
2022-10-16T21:53:41.859Z,56.65
2022-10-16T21:56:16.201Z,46.33
2022-10-16T21:58:44.241Z,46.67
2022-10-16T22:01:16.578Z,41.60
2022-10-16T22:03:44.549Z,42.80
2022-10-16T22:06:12.942Z,44.97
2022-10-16T22:08:40.782Z,37.33
2022-10-16T22:11:21.508Z,41.88
2022-10-16T22:13:54.089Z,46.80
2022-10-16T22:16:27.028Z,41.42
2022-10-16T22:18:55.603Z,43.50
2022-10-16T22:21:23.000Z,47.00
2022-10-16T22:23:50.255Z,44.22
2022-10-16T22:26:17.200Z,36.97
2022-10-16T22:28:44.080Z,33.38
2022-10-16T22:31:13.326Z,47.95
2022-10-16T22:33:40.876Z,37.22
2022-10-16T22:36:10.552Z,38.15
2022-10-16T22:38:37.675Z,37.85
2022-10-16T22:41:09.716Z,33.80
2022-10-16T22:43:38.470Z,31.02
2022-10-16T22:46:08.201Z,38.90
2022-10-16T22:48:36.082Z,34.72
2022-10-16T22:51:04.767Z,32.65
2022-10-16T22:53:31.870Z,34.78
2022-10-16T22:55:58.850Z,39.88
2022-10-16T22:58:25.742Z,36.55
2022-10-16T23:00:52.983Z,30.80
2022-10-16T23:03:20.054Z,33.00
2022-10-16T23:05:46.947Z,33.88
2022-10-16T23:08:15.084Z,28.80
2022-10-16T23:10:43.866Z,30.30
2022-10-16T23:13:11.558Z,28.10
2022-10-16T23:15:43.435Z,28.58
2022-10-16T23:18:10.587Z,29.00
2022-10-16T23:20:40.729Z,30.35
2022-10-16T23:23:08.191Z,27.83
2022-10-16T23:25:35.687Z,30.73
2022-10-16T23:28:02.549Z,32.00
2022-10-16T23:30:29.709Z,27.23
2022-10-16T23:32:56.554Z,29.00
2022-10-16T23:35:23.386Z,28.30
2022-10-16T23:37:51.533Z,33.92
2022-10-16T23:40:18.780Z,29.87
2022-10-16T23:42:45.735Z,30.37
2022-10-16T23:45:12.875Z,26.20
2022-10-16T23:47:41.470Z,30.65
2022-10-16T23:50:09.593Z,24.55
2022-10-16T23:52:36.831Z,26.75
2022-10-16T23:55:04.459Z,34.28
2022-10-16T23:57:31.430Z,25.17
2022-10-16T23:59:58.749Z,29.63
